sensor_id;sensor_type;location;lat;lon;timestamp;P1;durP1;ratioP1;P2;durP2;ratioP2
46348;SDS011;32057;47.830;19.046;2023-12-20T00:01:16;13.38;;;6.65;;
46348;SDS011;32057;47.830;19.046;2023-12-20T00:03:41;15.10;;;5.30;;
46348;SDS011;32057;47.830;19.046;2023-12-20T00:06:07;11.35;;;6.93;;
46348;SDS011;32057;47.830;19.046;2023-12-20T00:08:32;13.82;;;5.85;;
46348;SDS011;32057;47.830;19.046;2023-12-20T00:10:57;6.78;;;4.90;;
46348;SDS011;32057;47.830;19.046;2023-12-20T00:13:23;22.17;;;5.32;;
46348;SDS011;32057;47.830;19.046;2023-12-20T00:15:48;17.27;;;6.18;;
46348;SDS011;32057;47.830;19.046;2023-12-20T00:18:13;19.02;;;5.72;;
46348;SDS011;32057;47.830;19.046;2023-12-20T00:20:39;11.48;;;5.95;;
46348;SDS011;32057;47.830;19.046;2023-12-20T00:23:04;12.10;;;6.55;;
46348;SDS011;32057;47.830;19.046;2023-12-20T00:25:30;9.05;;;4.93;;
46348;SDS011;32057;47.830;19.046;2023-12-20T00:27:55;11.18;;;4.25;;
46348;SDS011;32057;47.830;19.046;2023-12-20T00:30:20;12.38;;;4.72;;
46348;SDS011;32057;47.830;19.046;2023-12-20T00:32:45;9.77;;;5.20;;
46348;SDS011;32057;47.830;19.046;2023-12-20T00:35:12;10.60;;;5.07;;
46348;SDS011;32057;47.830;19.046;2023-12-20T00:37:38;14.75;;;6.45;;
46348;SDS011;32057;47.830;19.046;2023-12-20T00:40:04;13.02;;;5.47;;
46348;SDS011;32057;47.830;19.046;2023-12-20T00:42:29;13.27;;;5.65;;
46348;SDS011;32057;47.830;19.046;2023-12-20T00:44:55;13.85;;;6.05;;
46348;SDS011;32057;47.830;19.046;2023-12-20T00:47:20;10.82;;;4.88;;
46348;SDS011;32057;47.830;19.046;2023-12-20T00:49:47;7.32;;;4.70;;
46348;SDS011;32057;47.830;19.046;2023-12-20T00:52:12;8.15;;;5.15;;
46348;SDS011;32057;47.830;19.046;2023-12-20T00:54:37;7.15;;;5.93;;
46348;SDS011;32057;47.830;19.046;2023-12-20T00:57:03;10.65;;;4.70;;
46348;SDS011;32057;47.830;19.046;2023-12-20T00:59:28;9.85;;;4.78;;
46348;SDS011;32057;47.830;19.046;2023-12-20T01:01:53;11.20;;;4.45;;
46348;SDS011;32057;47.830;19.046;2023-12-20T01:04:19;11.57;;;5.15;;
46348;SDS011;32057;47.830;19.046;2023-12-20T01:06:44;8.70;;;4.55;;
46348;SDS011;32057;47.830;19.046;2023-12-20T01:09:09;9.48;;;5.40;;
46348;SDS011;32057;47.830;19.046;2023-12-20T01:11:35;6.65;;;3.53;;
46348;SDS011;32057;47.830;19.046;2023-12-20T01:14:00;5.78;;;3.95;;
46348;SDS011;32057;47.830;19.046;2023-12-20T01:16:25;7.93;;;4.95;;
46348;SDS011;32057;47.830;19.046;2023-12-20T01:18:50;12.10;;;5.57;;
46348;SDS011;32057;47.830;19.046;2023-12-20T01:21:16;10.40;;;5.88;;
46348;SDS011;32057;47.830;19.046;2023-12-20T01:23:41;8.88;;;5.28;;
46348;SDS011;32057;47.830;19.046;2023-12-20T01:26:06;7.15;;;4.35;;
46348;SDS011;32057;47.830;19.046;2023-12-20T01:28:32;6.70;;;4.78;;
46348;SDS011;32057;47.830;19.046;2023-12-20T01:30:57;15.63;;;4.65;;
46348;SDS011;32057;47.830;19.046;2023-12-20T01:33:23;7.07;;;4.63;;
46348;SDS011;32057;47.830;19.046;2023-12-20T01:35:48;12.95;;;6.80;;
46348;SDS011;32057;47.830;19.046;2023-12-20T01:38:14;18.25;;;7.03;;
46348;SDS011;32057;47.830;19.046;2023-12-20T01:40:39;11.93;;;5.80;;
46348;SDS011;32057;47.830;19.046;2023-12-20T01:43:08;10.07;;;6.57;;
46348;SDS011;32057;47.830;19.046;2023-12-20T01:45:34;10.10;;;5.07;;
46348;SDS011;32057;47.830;19.046;2023-12-20T01:48:00;12.00;;;6.28;;
46348;SDS011;32057;47.830;19.046;2023-12-20T01:50:28;15.45;;;5.57;;
46348;SDS011;32057;47.830;19.046;2023-12-20T01:52:53;24.42;;;5.82;;
46348;SDS011;32057;47.830;19.046;2023-12-20T01:55:22;8.90;;;5.28;;
46348;SDS011;32057;47.830;19.046;2023-12-20T01:57:48;8.75;;;5.10;;
46348;SDS011;32057;47.830;19.046;2023-12-20T02:00:14;11.48;;;6.07;;
46348;SDS011;32057;47.830;19.046;2023-12-20T02:02:40;13.40;;;7.88;;
46348;SDS011;32057;47.830;19.046;2023-12-20T02:05:06;16.52;;;7.05;;
46348;SDS011;32057;47.830;19.046;2023-12-20T02:07:32;13.15;;;7.30;;
46348;SDS011;32057;47.830;19.046;2023-12-20T02:09:58;17.58;;;7.15;;
46348;SDS011;32057;47.830;19.046;2023-12-20T02:12:23;16.67;;;6.60;;
46348;SDS011;32057;47.830;19.046;2023-12-20T02:14:49;13.05;;;4.53;;
46348;SDS011;32057;47.830;19.046;2023-12-20T02:17:15;11.05;;;5.57;;
46348;SDS011;32057;47.830;19.046;2023-12-20T02:19:41;15.07;;;7.32;;
46348;SDS011;32057;47.830;19.046;2023-12-20T02:22:09;12.40;;;5.93;;
46348;SDS011;32057;47.830;19.046;2023-12-20T02:24:37;11.60;;;5.68;;
46348;SDS011;32057;47.830;19.046;2023-12-20T02:27:03;11.65;;;5.63;;
46348;SDS011;32057;47.830;19.046;2023-12-20T02:29:31;10.48;;;5.15;;
46348;SDS011;32057;47.830;19.046;2023-12-20T02:31:57;16.10;;;6.65;;
46348;SDS011;32057;47.830;19.046;2023-12-20T02:34:23;8.38;;;5.82;;
46348;SDS011;32057;47.830;19.046;2023-12-20T02:36:48;14.73;;;6.55;;
46348;SDS011;32057;47.830;19.046;2023-12-20T02:39:13;13.38;;;5.90;;
46348;SDS011;32057;47.830;19.046;2023-12-20T02:41:39;6.63;;;4.40;;
46348;SDS011;32057;47.830;19.046;2023-12-20T02:44:04;8.05;;;4.68;;
46348;SDS011;32057;47.830;19.046;2023-12-20T02:46:29;11.15;;;5.55;;
46348;SDS011;32057;47.830;19.046;2023-12-20T02:48:55;15.10;;;6.90;;
46348;SDS011;32057;47.830;19.046;2023-12-20T02:51:20;8.75;;;4.00;;
46348;SDS011;32057;47.830;19.046;2023-12-20T02:53:45;9.95;;;4.88;;
46348;SDS011;32057;47.830;19.046;2023-12-20T02:56:11;7.95;;;5.35;;
46348;SDS011;32057;47.830;19.046;2023-12-20T02:58:36;11.90;;;6.13;;
46348;SDS011;32057;47.830;19.046;2023-12-20T03:01:01;7.20;;;5.45;;
46348;SDS011;32057;47.830;19.046;2023-12-20T03:03:27;10.70;;;5.47;;
46348;SDS011;32057;47.830;19.046;2023-12-20T03:05:52;7.75;;;5.43;;
46348;SDS011;32057;47.830;19.046;2023-12-20T03:08:18;6.43;;;4.72;;
46348;SDS011;32057;47.830;19.046;2023-12-20T03:10:43;7.07;;;4.88;;
46348;SDS011;32057;47.830;19.046;2023-12-20T03:13:08;6.90;;;4.80;;
46348;SDS011;32057;47.830;19.046;2023-12-20T03:15:34;9.57;;;3.85;;
46348;SDS011;32057;47.830;19.046;2023-12-20T03:17:59;11.35;;;5.55;;
46348;SDS011;32057;47.830;19.046;2023-12-20T03:20:25;6.32;;;3.90;;
46348;SDS011;32057;47.830;19.046;2023-12-20T03:22:51;4.60;;;2.47;;
46348;SDS011;32057;47.830;19.046;2023-12-20T03:25:17;9.50;;;5.13;;
46348;SDS011;32057;47.830;19.046;2023-12-20T03:27:42;7.00;;;3.92;;
46348;SDS011;32057;47.830;19.046;2023-12-20T03:30:07;4.05;;;3.10;;
46348;SDS011;32057;47.830;19.046;2023-12-20T03:32:33;5.25;;;4.20;;
46348;SDS011;32057;47.830;19.046;2023-12-20T03:34:58;8.73;;;5.75;;
46348;SDS011;32057;47.830;19.046;2023-12-20T03:37:24;7.63;;;4.55;;
46348;SDS011;32057;47.830;19.046;2023-12-20T03:39:49;5.97;;;3.80;;
46348;SDS011;32057;47.830;19.046;2023-12-20T03:42:14;12.55;;;4.90;;
46348;SDS011;32057;47.830;19.046;2023-12-20T03:44:40;8.95;;;4.90;;
46348;SDS011;32057;47.830;19.046;2023-12-20T03:47:05;7.43;;;4.07;;
46348;SDS011;32057;47.830;19.046;2023-12-20T03:49:31;9.45;;;5.38;;
46348;SDS011;32057;47.830;19.046;2023-12-20T03:51:56;6.85;;;4.38;;
46348;SDS011;32057;47.830;19.046;2023-12-20T03:54:21;12.27;;;4.90;;
46348;SDS011;32057;47.830;19.046;2023-12-20T03:56:47;6.47;;;4.07;;
46348;SDS011;32057;47.830;19.046;2023-12-20T03:59:12;6.32;;;3.13;;
46348;SDS011;32057;47.830;19.046;2023-12-20T04:01:37;7.68;;;3.35;;
46348;SDS011;32057;47.830;19.046;2023-12-20T04:04:03;8.13;;;4.55;;
46348;SDS011;32057;47.830;19.046;2023-12-20T04:06:28;4.75;;;3.08;;
46348;SDS011;32057;47.830;19.046;2023-12-20T04:08:54;6.28;;;4.10;;
46348;SDS011;32057;47.830;19.046;2023-12-20T04:11:19;12.48;;;5.68;;
46348;SDS011;32057;47.830;19.046;2023-12-20T04:13:44;7.25;;;4.50;;
46348;SDS011;32057;47.830;19.046;2023-12-20T04:16:10;11.95;;;6.38;;
46348;SDS011;32057;47.830;19.046;2023-12-20T04:18:35;8.73;;;4.90;;
46348;SDS011;32057;47.830;19.046;2023-12-20T04:21:01;8.15;;;4.20;;
46348;SDS011;32057;47.830;19.046;2023-12-20T04:23:26;15.85;;;6.70;;
46348;SDS011;32057;47.830;19.046;2023-12-20T04:25:53;10.55;;;6.93;;
46348;SDS011;32057;47.830;19.046;2023-12-20T04:28:19;13.00;;;6.72;;
46348;SDS011;32057;47.830;19.046;2023-12-20T04:30:44;10.55;;;5.63;;
46348;SDS011;32057;47.830;19.046;2023-12-20T04:33:10;9.93;;;6.65;;
46348;SDS011;32057;47.830;19.046;2023-12-20T04:35:35;16.48;;;6.53;;
46348;SDS011;32057;47.830;19.046;2023-12-20T04:38:00;8.77;;;5.95;;
46348;SDS011;32057;47.830;19.046;2023-12-20T04:40:26;7.13;;;5.20;;
46348;SDS011;32057;47.830;19.046;2023-12-20T04:42:51;11.90;;;4.78;;
46348;SDS011;32057;47.830;19.046;2023-12-20T04:45:16;13.65;;;6.57;;
46348;SDS011;32057;47.830;19.046;2023-12-20T04:47:42;11.73;;;6.72;;
46348;SDS011;32057;47.830;19.046;2023-12-20T04:50:07;11.15;;;6.32;;
46348;SDS011;32057;47.830;19.046;2023-12-20T04:52:34;14.30;;;5.95;;
46348;SDS011;32057;47.830;19.046;2023-12-20T04:55:00;16.55;;;7.00;;
46348;SDS011;32057;47.830;19.046;2023-12-20T04:57:25;16.40;;;7.43;;
46348;SDS011;32057;47.830;19.046;2023-12-20T04:59:51;13.95;;;5.97;;
46348;SDS011;32057;47.830;19.046;2023-12-20T05:02:16;9.13;;;5.80;;
46348;SDS011;32057;47.830;19.046;2023-12-20T05:04:41;16.30;;;7.03;;
46348;SDS011;32057;47.830;19.046;2023-12-20T05:07:07;17.40;;;8.35;;
46348;SDS011;32057;47.830;19.046;2023-12-20T05:09:32;22.55;;;7.07;;
46348;SDS011;32057;47.830;19.046;2023-12-20T05:11:58;14.10;;;7.00;;
46348;SDS011;32057;47.830;19.046;2023-12-20T05:14:23;33.75;;;9.15;;
46348;SDS011;32057;47.830;19.046;2023-12-20T05:16:49;11.07;;;6.35;;
46348;SDS011;32057;47.830;19.046;2023-12-20T05:19:15;32.08;;;7.68;;
46348;SDS011;32057;47.830;19.046;2023-12-20T05:21:40;16.70;;;8.13;;
46348;SDS011;32057;47.830;19.046;2023-12-20T05:24:05;13.38;;;7.20;;
46348;SDS011;32057;47.830;19.046;2023-12-20T05:26:30;12.38;;;7.25;;
46348;SDS011;32057;47.830;19.046;2023-12-20T05:28:56;21.15;;;8.75;;
46348;SDS011;32057;47.830;19.046;2023-12-20T05:31:21;14.55;;;6.45;;
46348;SDS011;32057;47.830;19.046;2023-12-20T05:33:46;38.05;;;8.95;;
46348;SDS011;32057;47.830;19.046;2023-12-20T05:36:12;26.48;;;6.40;;
46348;SDS011;32057;47.830;19.046;2023-12-20T05:38:38;44.17;;;7.65;;
46348;SDS011;32057;47.830;19.046;2023-12-20T05:41:04;45.13;;;7.68;;
46348;SDS011;32057;47.830;19.046;2023-12-20T05:43:29;23.55;;;6.53;;
46348;SDS011;32057;47.830;19.046;2023-12-20T05:45:55;13.85;;;6.75;;
46348;SDS011;32057;47.830;19.046;2023-12-20T05:48:20;12.75;;;7.70;;
46348;SDS011;32057;47.830;19.046;2023-12-20T05:50:45;10.52;;;6.22;;
46348;SDS011;32057;47.830;19.046;2023-12-20T05:53:11;16.08;;;7.07;;
46348;SDS011;32057;47.830;19.046;2023-12-20T05:55:36;18.45;;;7.40;;
46348;SDS011;32057;47.830;19.046;2023-12-20T05:58:01;14.20;;;8.30;;
46348;SDS011;32057;47.830;19.046;2023-12-20T06:00:27;21.52;;;6.30;;
46348;SDS011;32057;47.830;19.046;2023-12-20T06:02:52;22.40;;;6.45;;
46348;SDS011;32057;47.830;19.046;2023-12-20T06:05:17;10.95;;;7.30;;
46348;SDS011;32057;47.830;19.046;2023-12-20T06:07:43;23.05;;;8.70;;
46348;SDS011;32057;47.830;19.046;2023-12-20T06:10:09;16.08;;;5.45;;
46348;SDS011;32057;47.830;19.046;2023-12-20T06:12:35;14.60;;;7.57;;
46348;SDS011;32057;47.830;19.046;2023-12-20T06:15:01;7.90;;;5.80;;
46348;SDS011;32057;47.830;19.046;2023-12-20T06:17:26;15.25;;;6.13;;
46348;SDS011;32057;47.830;19.046;2023-12-20T06:19:52;8.70;;;5.93;;
46348;SDS011;32057;47.830;19.046;2023-12-20T06:22:17;20.30;;;7.68;;
46348;SDS011;32057;47.830;19.046;2023-12-20T06:24:42;11.20;;;5.88;;
46348;SDS011;32057;47.830;19.046;2023-12-20T06:27:08;6.22;;;4.85;;
46348;SDS011;32057;47.830;19.046;2023-12-20T06:29:33;19.98;;;6.93;;
46348;SDS011;32057;47.830;19.046;2023-12-20T06:31:59;10.32;;;5.57;;
46348;SDS011;32057;47.830;19.046;2023-12-20T06:34:25;6.93;;;4.13;;
46348;SDS011;32057;47.830;19.046;2023-12-20T06:36:50;16.88;;;6.93;;
46348;SDS011;32057;47.830;19.046;2023-12-20T06:39:15;17.73;;;5.53;;
46348;SDS011;32057;47.830;19.046;2023-12-20T06:41:41;14.70;;;6.13;;
46348;SDS011;32057;47.830;19.046;2023-12-20T06:44:07;8.63;;;6.78;;
46348;SDS011;32057;47.830;19.046;2023-12-20T06:46:33;11.00;;;7.00;;
46348;SDS011;32057;47.830;19.046;2023-12-20T06:48:58;11.68;;;4.82;;
46348;SDS011;32057;47.830;19.046;2023-12-20T06:51:23;8.80;;;5.65;;
46348;SDS011;32057;47.830;19.046;2023-12-20T06:53:51;13.23;;;5.50;;
46348;SDS011;32057;47.830;19.046;2023-12-20T06:56:17;13.05;;;5.10;;
46348;SDS011;32057;47.830;19.046;2023-12-20T06:58:42;13.52;;;5.97;;
46348;SDS011;32057;47.830;19.046;2023-12-20T07:01:11;16.65;;;6.10;;
46348;SDS011;32057;47.830;19.046;2023-12-20T07:03:37;10.93;;;5.53;;
46348;SDS011;32057;47.830;19.046;2023-12-20T07:06:02;18.60;;;6.03;;
46348;SDS011;32057;47.830;19.046;2023-12-20T07:08:28;10.50;;;4.47;;
46348;SDS011;32057;47.830;19.046;2023-12-20T07:10:54;9.20;;;4.88;;
46348;SDS011;32057;47.830;19.046;2023-12-20T07:13:19;9.73;;;5.40;;
46348;SDS011;32057;47.830;19.046;2023-12-20T07:15:44;7.95;;;4.65;;
46348;SDS011;32057;47.830;19.046;2023-12-20T07:18:10;9.63;;;5.65;;
46348;SDS011;32057;47.830;19.046;2023-12-20T07:20:35;19.00;;;5.53;;
46348;SDS011;32057;47.830;19.046;2023-12-20T07:23:00;10.82;;;5.85;;
46348;SDS011;32057;47.830;19.046;2023-12-20T07:25:26;11.20;;;5.88;;
46348;SDS011;32057;47.830;19.046;2023-12-20T07:27:51;13.02;;;6.60;;
46348;SDS011;32057;47.830;19.046;2023-12-20T07:30:16;9.20;;;6.05;;
46348;SDS011;32057;47.830;19.046;2023-12-20T07:32:42;6.65;;;4.55;;
46348;SDS011;32057;47.830;19.046;2023-12-20T07:35:07;7.45;;;3.70;;
46348;SDS011;32057;47.830;19.046;2023-12-20T07:37:33;11.23;;;5.57;;
46348;SDS011;32057;47.830;19.046;2023-12-20T07:39:58;6.50;;;4.28;;
46348;SDS011;32057;47.830;19.046;2023-12-20T07:42:23;10.13;;;5.88;;
46348;SDS011;32057;47.830;19.046;2023-12-20T07:44:49;11.30;;;6.07;;
46348;SDS011;32057;47.830;19.046;2023-12-20T07:47:14;20.25;;;9.90;;
46348;SDS011;32057;47.830;19.046;2023-12-20T07:49:42;11.98;;;7.38;;
46348;SDS011;32057;47.830;19.046;2023-12-20T07:52:07;22.00;;;9.93;;
46348;SDS011;32057;47.830;19.046;2023-12-20T07:54:33;10.57;;;7.95;;
46348;SDS011;32057;47.830;19.046;2023-12-20T07:56:58;12.40;;;4.75;;
46348;SDS011;32057;47.830;19.046;2023-12-20T07:59:24;11.75;;;6.93;;
46348;SDS011;32057;47.830;19.046;2023-12-20T08:01:49;12.30;;;5.00;;
46348;SDS011;32057;47.830;19.046;2023-12-20T08:04:14;14.93;;;6.03;;
46348;SDS011;32057;47.830;19.046;2023-12-20T08:06:39;10.27;;;5.90;;
46348;SDS011;32057;47.830;19.046;2023-12-20T08:09:05;7.82;;;5.65;;
46348;SDS011;32057;47.830;19.046;2023-12-20T08:11:30;7.88;;;5.13;;
46348;SDS011;32057;47.830;19.046;2023-12-20T08:13:55;8.20;;;4.75;;
46348;SDS011;32057;47.830;19.046;2023-12-20T08:16:21;6.13;;;4.00;;
46348;SDS011;32057;47.830;19.046;2023-12-20T08:18:47;10.48;;;5.50;;
46348;SDS011;32057;47.830;19.046;2023-12-20T08:21:12;15.70;;;7.47;;
46348;SDS011;32057;47.830;19.046;2023-12-20T08:23:38;6.45;;;5.40;;
46348;SDS011;32057;47.830;19.046;2023-12-20T08:26:06;10.55;;;6.32;;
46348;SDS011;32057;47.830;19.046;2023-12-20T08:28:32;7.78;;;5.65;;
46348;SDS011;32057;47.830;19.046;2023-12-20T08:30:58;14.45;;;5.85;;
46348;SDS011;32057;47.830;19.046;2023-12-20T08:33:24;10.82;;;5.43;;
46348;SDS011;32057;47.830;19.046;2023-12-20T08:35:49;11.00;;;5.95;;
46348;SDS011;32057;47.830;19.046;2023-12-20T08:38:14;10.63;;;5.25;;
46348;SDS011;32057;47.830;19.046;2023-12-20T08:40:39;9.55;;;5.18;;
46348;SDS011;32057;47.830;19.046;2023-12-20T08:43:05;11.27;;;6.20;;
46348;SDS011;32057;47.830;19.046;2023-12-20T08:45:30;13.88;;;5.05;;
46348;SDS011;32057;47.830;19.046;2023-12-20T08:47:55;10.13;;;5.25;;
46348;SDS011;32057;47.830;19.046;2023-12-20T08:50:21;10.00;;;5.57;;
46348;SDS011;32057;47.830;19.046;2023-12-20T08:52:46;12.25;;;5.85;;
46348;SDS011;32057;47.830;19.046;2023-12-20T08:55:12;12.02;;;6.88;;
46348;SDS011;32057;47.830;19.046;2023-12-20T08:57:37;11.93;;;6.03;;
46348;SDS011;32057;47.830;19.046;2023-12-20T09:00:03;17.02;;;8.23;;
46348;SDS011;32057;47.830;19.046;2023-12-20T09:02:29;15.27;;;8.00;;
46348;SDS011;32057;47.830;19.046;2023-12-20T09:04:54;19.92;;;8.20;;
46348;SDS011;32057;47.830;19.046;2023-12-20T09:07:24;15.18;;;7.55;;
46348;SDS011;32057;47.830;19.046;2023-12-20T09:09:51;18.50;;;7.75;;
46348;SDS011;32057;47.830;19.046;2023-12-20T09:12:20;19.40;;;9.40;;
46348;SDS011;32057;47.830;19.046;2023-12-20T09:14:49;15.95;;;7.43;;
46348;SDS011;32057;47.830;19.046;2023-12-20T09:17:18;14.25;;;8.40;;
46348;SDS011;32057;47.830;19.046;2023-12-20T09:19:44;12.07;;;6.47;;
46348;SDS011;32057;47.830;19.046;2023-12-20T09:22:10;11.13;;;6.65;;
46348;SDS011;32057;47.830;19.046;2023-12-20T09:24:36;13.15;;;5.95;;
46348;SDS011;32057;47.830;19.046;2023-12-20T09:27:01;15.70;;;8.40;;
46348;SDS011;32057;47.830;19.046;2023-12-20T09:29:27;16.23;;;8.25;;
46348;SDS011;32057;47.830;19.046;2023-12-20T09:31:53;9.02;;;6.38;;
46348;SDS011;32057;47.830;19.046;2023-12-20T09:34:18;16.08;;;9.35;;
46348;SDS011;32057;47.830;19.046;2023-12-20T09:36:43;14.93;;;7.90;;
46348;SDS011;32057;47.830;19.046;2023-12-20T09:39:15;14.75;;;8.65;;
46348;SDS011;32057;47.830;19.046;2023-12-20T09:44:15;11.48;;;5.38;;
46348;SDS011;32057;47.830;19.046;2023-12-20T09:46:43;12.02;;;6.70;;
46348;SDS011;32057;47.830;19.046;2023-12-20T09:49:10;11.20;;;7.25;;
46348;SDS011;32057;47.830;19.046;2023-12-20T09:51:36;15.75;;;7.97;;
46348;SDS011;32057;47.830;19.046;2023-12-20T09:54:03;15.93;;;7.85;;
46348;SDS011;32057;47.830;19.046;2023-12-20T09:56:29;14.68;;;7.22;;
46348;SDS011;32057;47.830;19.046;2023-12-20T09:58:55;15.20;;;9.90;;
46348;SDS011;32057;47.830;19.046;2023-12-20T10:01:20;12.43;;;8.50;;
46348;SDS011;32057;47.830;19.046;2023-12-20T10:03:46;17.42;;;9.02;;
46348;SDS011;32057;47.830;19.046;2023-12-20T10:06:12;10.65;;;8.00;;
46348;SDS011;32057;47.830;19.046;2023-12-20T10:08:37;15.27;;;8.60;;
46348;SDS011;32057;47.830;19.046;2023-12-20T10:11:05;13.43;;;7.80;;
46348;SDS011;32057;47.830;19.046;2023-12-20T10:13:30;13.85;;;7.88;;
46348;SDS011;32057;47.830;19.046;2023-12-20T10:15:56;13.43;;;8.07;;
46348;SDS011;32057;47.830;19.046;2023-12-20T10:18:22;10.48;;;7.78;;
46348;SDS011;32057;47.830;19.046;2023-12-20T10:20:47;15.63;;;7.18;;
46348;SDS011;32057;47.830;19.046;2023-12-20T10:23:13;13.35;;;8.35;;
46348;SDS011;32057;47.830;19.046;2023-12-20T10:25:40;14.88;;;9.15;;
46348;SDS011;32057;47.830;19.046;2023-12-20T10:28:11;14.40;;;8.63;;
46348;SDS011;32057;47.830;19.046;2023-12-20T10:30:43;16.20;;;9.18;;
46348;SDS011;32057;47.830;19.046;2023-12-20T10:33:09;13.43;;;7.88;;
46348;SDS011;32057;47.830;19.046;2023-12-20T10:35:35;14.60;;;8.02;;
46348;SDS011;32057;47.830;19.046;2023-12-20T10:38:05;18.55;;;10.48;;
46348;SDS011;32057;47.830;19.046;2023-12-20T10:40:35;18.42;;;8.68;;
46348;SDS011;32057;47.830;19.046;2023-12-20T10:43:04;13.95;;;9.20;;
46348;SDS011;32057;47.830;19.046;2023-12-20T10:45:30;18.33;;;9.90;;
46348;SDS011;32057;47.830;19.046;2023-12-20T10:47:55;17.90;;;10.65;;
46348;SDS011;32057;47.830;19.046;2023-12-20T10:50:21;17.45;;;9.80;;
46348;SDS011;32057;47.830;19.046;2023-12-20T10:52:46;17.48;;;9.70;;
46348;SDS011;32057;47.830;19.046;2023-12-20T10:55:12;42.17;;;10.50;;
46348;SDS011;32057;47.830;19.046;2023-12-20T10:57:38;24.55;;;9.85;;
46348;SDS011;32057;47.830;19.046;2023-12-20T11:00:05;18.23;;;9.27;;
46348;SDS011;32057;47.830;19.046;2023-12-20T11:02:39;20.20;;;10.50;;
46348;SDS011;32057;47.830;19.046;2023-12-20T11:05:10;18.98;;;10.02;;
46348;SDS011;32057;47.830;19.046;2023-12-20T11:07:52;26.55;;;10.65;;
46348;SDS011;32057;47.830;19.046;2023-12-20T11:10:54;14.93;;;9.40;;
46348;SDS011;32057;47.830;19.046;2023-12-20T11:13:32;23.50;;;12.50;;
46348;SDS011;32057;47.830;19.046;2023-12-20T11:16:02;15.05;;;9.35;;
46348;SDS011;32057;47.830;19.046;2023-12-20T11:18:28;16.88;;;9.95;;
46348;SDS011;32057;47.830;19.046;2023-12-20T11:20:55;20.38;;;10.45;;
46348;SDS011;32057;47.830;19.046;2023-12-20T11:23:25;18.30;;;8.80;;
46348;SDS011;32057;47.830;19.046;2023-12-20T11:25:54;18.85;;;11.32;;
46348;SDS011;32057;47.830;19.046;2023-12-20T11:28:23;14.68;;;10.18;;
46348;SDS011;32057;47.830;19.046;2023-12-20T11:33:25;20.65;;;11.30;;
46348;SDS011;32057;47.830;19.046;2023-12-20T11:35:51;17.60;;;10.98;;
46348;SDS011;32057;47.830;19.046;2023-12-20T11:38:20;16.83;;;10.52;;
46348;SDS011;32057;47.830;19.046;2023-12-20T11:40:47;15.63;;;12.00;;
46348;SDS011;32057;47.830;19.046;2023-12-20T11:43:29;14.32;;;9.35;;
46348;SDS011;32057;47.830;19.046;2023-12-20T11:45:56;15.52;;;9.07;;
46348;SDS011;32057;47.830;19.046;2023-12-20T11:48:28;13.88;;;9.63;;
46348;SDS011;32057;47.830;19.046;2023-12-20T11:50:53;19.63;;;8.70;;
46348;SDS011;32057;47.830;19.046;2023-12-20T11:53:19;13.70;;;8.65;;
46348;SDS011;32057;47.830;19.046;2023-12-20T11:55:47;16.48;;;10.05;;
46348;SDS011;32057;47.830;19.046;2023-12-20T11:58:13;17.23;;;9.68;;
46348;SDS011;32057;47.830;19.046;2023-12-20T12:00:40;12.93;;;8.48;;
46348;SDS011;32057;47.830;19.046;2023-12-20T12:03:06;12.27;;;8.18;;
46348;SDS011;32057;47.830;19.046;2023-12-20T12:05:31;13.20;;;8.20;;
46348;SDS011;32057;47.830;19.046;2023-12-20T12:07:58;15.10;;;8.65;;
46348;SDS011;32057;47.830;19.046;2023-12-20T12:10:23;15.90;;;8.95;;
46348;SDS011;32057;47.830;19.046;2023-12-20T12:12:49;13.10;;;7.32;;
46348;SDS011;32057;47.830;19.046;2023-12-20T12:15:14;13.52;;;8.32;;
46348;SDS011;32057;47.830;19.046;2023-12-20T12:17:40;20.90;;;9.55;;
46348;SDS011;32057;47.830;19.046;2023-12-20T12:20:05;15.57;;;7.50;;
46348;SDS011;32057;47.830;19.046;2023-12-20T12:22:31;12.10;;;8.02;;
46348;SDS011;32057;47.830;19.046;2023-12-20T12:24:58;13.85;;;7.65;;
46348;SDS011;32057;47.830;19.046;2023-12-20T12:27:33;15.00;;;8.60;;
46348;SDS011;32057;47.830;19.046;2023-12-20T12:30:03;13.10;;;7.85;;
46348;SDS011;32057;47.830;19.046;2023-12-20T12:32:29;17.73;;;10.20;;
46348;SDS011;32057;47.830;19.046;2023-12-20T12:34:55;14.38;;;8.73;;
46348;SDS011;32057;47.830;19.046;2023-12-20T12:37:20;12.98;;;7.05;;
46348;SDS011;32057;47.830;19.046;2023-12-20T12:39:48;18.15;;;8.80;;
46348;SDS011;32057;47.830;19.046;2023-12-20T12:42:14;12.27;;;7.80;;
46348;SDS011;32057;47.830;19.046;2023-12-20T12:44:39;9.43;;;6.50;;
46348;SDS011;32057;47.830;19.046;2023-12-20T12:47:05;17.33;;;9.18;;
46348;SDS011;32057;47.830;19.046;2023-12-20T12:49:30;21.15;;;12.90;;
46348;SDS011;32057;47.830;19.046;2023-12-20T12:51:57;19.40;;;9.35;;
46348;SDS011;32057;47.830;19.046;2023-12-20T12:54:23;14.68;;;8.63;;
46348;SDS011;32057;47.830;19.046;2023-12-20T12:56:49;24.15;;;7.97;;
46348;SDS011;32057;47.830;19.046;2023-12-20T12:59:15;13.70;;;7.45;;
46348;SDS011;32057;47.830;19.046;2023-12-20T13:01:41;13.55;;;7.53;;
46348;SDS011;32057;47.830;19.046;2023-12-20T13:04:06;14.15;;;6.70;;
46348;SDS011;32057;47.830;19.046;2023-12-20T13:06:35;10.40;;;7.05;;
46348;SDS011;32057;47.830;19.046;2023-12-20T13:09:03;12.45;;;7.15;;
46348;SDS011;32057;47.830;19.046;2023-12-20T13:11:30;11.98;;;7.28;;
46348;SDS011;32057;47.830;19.046;2023-12-20T13:13:56;12.73;;;8.88;;
46348;SDS011;32057;47.830;19.046;2023-12-20T13:16:22;14.98;;;8.40;;
46348;SDS011;32057;47.830;19.046;2023-12-20T13:18:48;12.50;;;8.10;;
46348;SDS011;32057;47.830;19.046;2023-12-20T13:21:13;16.75;;;9.30;;
46348;SDS011;32057;47.830;19.046;2023-12-20T13:23:39;21.92;;;11.55;;
46348;SDS011;32057;47.830;19.046;2023-12-20T13:26:04;26.15;;;12.95;;
46348;SDS011;32057;47.830;19.046;2023-12-20T13:28:29;18.88;;;10.85;;
46348;SDS011;32057;47.830;19.046;2023-12-20T13:30:54;12.70;;;8.18;;
46348;SDS011;32057;47.830;19.046;2023-12-20T13:33:20;11.93;;;7.20;;
46348;SDS011;32057;47.830;19.046;2023-12-20T13:35:45;12.77;;;6.88;;
46348;SDS011;32057;47.830;19.046;2023-12-20T13:38:12;13.25;;;7.13;;
46348;SDS011;32057;47.830;19.046;2023-12-20T13:40:38;14.85;;;8.38;;
46348;SDS011;32057;47.830;19.046;2023-12-20T13:43:03;11.68;;;7.22;;
46348;SDS011;32057;47.830;19.046;2023-12-20T13:45:28;13.52;;;7.05;;
46348;SDS011;32057;47.830;19.046;2023-12-20T13:47:54;13.05;;;6.57;;
46348;SDS011;32057;47.830;19.046;2023-12-20T13:50:19;12.70;;;7.65;;
46348;SDS011;32057;47.830;19.046;2023-12-20T13:52:44;23.10;;;9.57;;
46348;SDS011;32057;47.830;19.046;2023-12-20T13:55:11;13.57;;;8.48;;
46348;SDS011;32057;47.830;19.046;2023-12-20T13:57:36;16.75;;;10.02;;
46348;SDS011;32057;47.830;19.046;2023-12-20T14:00:06;14.77;;;8.57;;
46348;SDS011;32057;47.830;19.046;2023-12-20T14:02:39;17.55;;;9.02;;
46348;SDS011;32057;47.830;19.046;2023-12-20T14:05:04;13.18;;;7.75;;
46348;SDS011;32057;47.830;19.046;2023-12-20T14:07:31;12.45;;;7.35;;
46348;SDS011;32057;47.830;19.046;2023-12-20T14:09:56;13.30;;;8.70;;
46348;SDS011;32057;47.830;19.046;2023-12-20T14:12:21;10.88;;;6.35;;
46348;SDS011;32057;47.830;19.046;2023-12-20T14:14:47;11.48;;;6.60;;
46348;SDS011;32057;47.830;19.046;2023-12-20T14:17:12;10.55;;;6.63;;
46348;SDS011;32057;47.830;19.046;2023-12-20T14:19:37;10.65;;;7.45;;
46348;SDS011;32057;47.830;19.046;2023-12-20T14:22:04;11.07;;;6.47;;